Terminal Aerodrome Forecast
Issued by NWS Grand Forks, ND

Home | Current Version | Previous Version | Graphics & Text | Print | Product List | Glossary On
Versions: 1 2 3 4 5 6 7 8 9 10 11 12 13 14 15 16 17 18 19 20 21 22 23 24 25
741
FTUS43 KFGF 072328
TAFGFK
TAF
KGFK 072328Z 0800/0824 31022G31KT 1 1/2SM BLSN OVC020
      TEMPO 0800/0801 3/4SM -SN OVC007
     FM080500 32018KT P6SM OVC015
     FM081100 32015KT P6SM OVC035
     FM081600 32014KT P6SM OVC015
     FM082300 31012KT P6SM BKN030=

USA.gov is the U.S. government's official web portal to all federal, state and local government web resources and services.